Time;durP1;ratioP1;P1;durP2;ratioP2;P2;SDS_P1;SDS_P2;PMS_P1;PMS_P2;Temp;Humidity;BMP_temperature;BMP_pressure;BME280_temperature;BME280_humidity;BME280_pressure;Samples;Min_cycle;Max_cycle;Signal;HPM_P1;HPM_P2
2022/01/05 00:00:39;;;;;;;3.03;2.10;;;3.50;99.90;;;;;;5032773;28;20501;-68
2022/01/05 00:03:04;;;;;;;3.10;2.30;;;3.40;99.90;;;;;;5032825;28;20465;-69
2022/01/05 00:05:30;;;;;;;2.10;1.80;;;3.40;99.90;;;;;;5032867;28;20253;-69
2022/01/05 00:07:56;;;;;;;3.10;1.87;;;3.40;99.90;;;;;;5051884;28;20210;-69
2022/01/05 00:10:22;;;;;;;2.97;2.00;;;3.50;99.90;;;;;;5053640;28;20444;-69
2022/01/05 00:12:48;;;;;;;2.77;2.00;;;3.60;99.90;;;;;;5053580;28;20229;-68
2022/01/05 00:15:13;;;;;;;3.27;1.80;;;3.60;99.90;;;;;;5053448;28;20181;-68
2022/01/05 00:17:39;;;;;;;2.93;1.73;;;3.70;99.90;;;;;;5053467;28;20750;-70
2022/01/05 00:20:05;;;;;;;4.40;2.87;;;3.90;99.90;;;;;;5053743;28;20169;-68
2022/01/05 00:22:31;;;;;;;2.47;2.27;;;4.10;99.90;;;;;;5054054;28;20185;-70
2022/01/05 00:24:56;;;;;;;3.03;2.37;;;4.20;99.90;;;;;;5051780;28;20506;-71
2022/01/05 00:27:22;;;;;;;4.00;2.90;;;4.40;99.90;;;;;;5052952;28;20595;-71
2022/01/05 00:29:48;;;;;;;3.43;2.93;;;4.60;99.90;;;;;;5034733;28;20185;-70
2022/01/05 00:32:14;;;;;;;5.00;3.70;;;4.60;99.90;;;;;;5032421;28;20670;-70
2022/01/05 00:34:39;;;;;;;5.30;4.00;;;4.70;99.90;;;;;;5032780;28;20502;-69
2022/01/05 00:37:05;;;;;;;4.13;3.67;;;4.80;99.90;;;;;;5033628;28;20489;-70
2022/01/05 00:39:30;;;;;;;3.90;3.17;;;4.90;99.90;;;;;;5034177;28;20175;-70
2022/01/05 00:41:56;;;;;;;5.70;3.10;;;5.00;99.90;;;;;;5034797;28;20226;-70
2022/01/05 00:44:21;;;;;;;4.13;3.07;;;4.90;99.90;;;;;;5033724;28;20211;-70
2022/01/05 00:46:47;;;;;;;5.20;3.90;;;5.00;99.90;;;;;;5034037;28;20252;-71
2022/01/05 00:49:13;;;;;;;3.17;2.97;;;5.00;99.90;;;;;;5034639;28;20698;-71
2022/01/05 00:51:39;;;;;;;4.77;3.97;;;5.10;99.90;;;;;;5034916;28;20194;-70
2022/01/05 00:54:06;;;;;;;3.73;3.43;;;5.20;99.90;;;;;;5034252;28;20460;-70
2022/01/05 00:56:31;;;;;;;5.20;4.07;;;5.20;99.90;;;;;;5033394;28;20208;-70
2022/01/05 00:58:58;;;;;;;4.00;3.70;;;5.10;99.90;;;;;;5033925;28;20414;-71
2022/01/05 01:01:24;;;;;;;4.70;4.40;;;5.20;99.90;;;;;;5034761;28;20194;-71
2022/01/05 01:03:49;;;;;;;4.53;4.13;;;5.30;99.90;;;;;;5033531;28;21051;-70
2022/01/05 01:06:15;;;;;;;4.80;4.30;;;5.40;99.90;;;;;;5034654;28;20205;-71
2022/01/05 01:08:41;;;;;;;3.50;3.20;;;5.40;99.90;;;;;;5037395;28;20179;-70
2022/01/05 01:11:06;;;;;;;4.10;3.80;;;5.40;99.90;;;;;;5038699;28;20185;-70
2022/01/05 01:13:32;;;;;;;5.27;4.60;;;5.30;99.90;;;;;;5037242;28;20202;-70
2022/01/05 01:15:58;;;;;;;5.70;4.63;;;5.30;99.90;;;;;;5036672;28;20222;-69
2022/01/05 01:18:24;;;;;;;5.97;4.80;;;5.20;99.90;;;;;;5037113;28;20977;-68
2022/01/05 01:20:50;;;;;;;7.03;6.27;;;5.20;99.90;;;;;;5037637;28;20218;-69
2022/01/05 01:23:19;;;;;;;7.60;6.30;;;5.20;99.90;;;;;;5056697;28;20188;-69
2022/01/05 01:25:44;;;;;;;8.70;6.87;;;5.20;99.90;;;;;;5057113;28;20468;-69
2022/01/05 01:28:10;;;;;;;9.10;7.20;;;5.20;99.90;;;;;;5057024;28;20984;-69
2022/01/05 01:30:36;;;;;;;8.07;7.27;;;5.10;99.90;;;;;;5056526;28;20273;-69
2022/01/05 01:33:02;;;;;;;8.90;6.70;;;5.10;99.90;;;;;;5055076;28;20577;-68
2022/01/05 01:35:28;;;;;;;10.90;8.57;;;5.00;99.90;;;;;;5056714;28;20287;-69
2022/01/05 01:37:54;;;;;;;9.47;7.60;;;5.10;99.90;;;;;;5056298;28;20415;-67
2022/01/05 01:40:20;;;;;;;10.13;7.83;;;5.10;99.90;;;;;;5056663;28;20182;-69
2022/01/05 01:42:46;;;;;;;7.67;6.90;;;5.10;99.90;;;;;;5055029;28;20510;-68
2022/01/05 01:45:12;;;;;;;11.30;6.37;;;5.20;99.90;;;;;;5045144;28;20737;-69
2022/01/05 01:47:38;;;;;;;8.23;5.90;;;5.10;99.90;;;;;;5027888;28;20425;-69
2022/01/05 01:50:04;;;;;;;9.40;6.03;;;5.20;99.90;;;;;;5035588;28;20601;-68
2022/01/05 01:52:30;;;;;;;5.77;4.93;;;5.30;99.90;;;;;;5035708;28;21048;-68
2022/01/05 01:54:56;;;;;;;5.87;5.00;;;5.30;99.90;;;;;;5053900;28;20432;-70
2022/01/05 01:57:21;;;;;;;5.67;5.00;;;5.10;99.90;;;;;;5054997;28;20249;-69
2022/01/05 01:59:48;;;;;;;7.40;6.13;;;5.20;99.90;;;;;;5057065;28;20480;-70
2022/01/05 02:02:16;;;;;;;6.33;5.33;;;5.30;99.90;;;;;;5056532;28;20228;-69
2022/01/05 02:04:43;;;;;;;5.40;4.90;;;5.20;99.90;;;;;;5049789;28;20453;-69
2022/01/05 02:07:09;;;;;;;6.83;5.67;;;5.00;99.90;;;;;;5036392;28;20445;-69
2022/01/05 02:09:34;;;;;;;7.03;4.63;;;5.00;99.90;;;;;;5036699;28;20417;-69
2022/01/05 02:12:00;;;;;;;9.70;5.63;;;5.10;99.90;;;;;;5037179;28;20948;-69
2022/01/05 02:14:25;;;;;;;6.83;5.10;;;5.20;99.90;;;;;;5040272;28;20182;-69
2022/01/05 02:16:51;;;;;;;8.20;5.90;;;5.30;99.90;;;;;;5056016;28;20352;-70
2022/01/05 02:19:16;;;;;;;14.80;6.30;;;5.30;99.90;;;;;;5055963;28;20162;-70
2022/01/05 02:21:42;;;;;;;12.10;6.20;;;5.30;99.90;;;;;;5056478;28;20242;-69
2022/01/05 02:24:09;;;;;;;10.50;5.93;;;5.30;99.90;;;;;;5056633;28;20180;-69
2022/01/05 02:26:36;;;;;;;8.23;6.00;;;5.40;99.90;;;;;;5054314;28;20706;-68
2022/01/05 02:29:03;;;;;;;9.73;5.43;;;5.20;99.90;;;;;;5056298;28;20519;-70
2022/01/05 02:31:29;;;;;;;9.40;6.00;;;5.00;99.90;;;;;;5056038;28;20412;-68
2022/01/05 02:33:55;;;;;;;8.17;6.37;;;4.80;99.90;;;;;;5055577;28;20455;-70
2022/01/05 02:36:21;;;;;;;10.17;6.93;;;4.80;99.90;;;;;;5053366;28;20305;-69
2022/01/05 02:38:52;;;;;;;9.60;6.10;;;4.90;99.90;;;;;;5055670;28;20190;-69
2022/01/05 02:41:18;;;;;;;14.20;6.70;;;5.00;99.90;;;;;;5036085;28;20483;-69
2022/01/05 02:43:45;;;;;;;15.90;8.50;;;5.10;99.90;;;;;;5035922;28;20427;-69
2022/01/05 02:46:12;;;;;;;11.27;7.63;;;5.10;99.90;;;;;;5036318;28;20968;-69
2022/01/05 02:48:39;;;;;;;10.60;7.10;;;5.00;99.90;;;;;;5035618;28;20813;-70
2022/01/05 02:51:05;;;;;;;9.43;7.33;;;5.00;99.90;;;;;;5035413;28;20417;-69
2022/01/05 02:53:31;;;;;;;14.20;7.70;;;5.10;99.90;;;;;;5035195;28;20452;-70
2022/01/05 02:55:57;;;;;;;14.90;8.10;;;5.10;99.90;;;;;;5033514;28;20437;-69
2022/01/05 02:58:23;;;;;;;8.73;7.00;;;5.10;99.90;;;;;;5036298;28;20765;-70
2022/01/05 03:00:48;;;;;;;11.60;7.67;;;5.00;99.90;;;;;;5035912;28;20186;-69
2022/01/05 03:03:14;;;;;;;10.47;7.40;;;5.00;99.90;;;;;;5035630;28;20225;-68
2022/01/05 03:05:40;;;;;;;7.93;7.13;;;5.00;99.90;;;;;;5035320;28;20210;-69
2022/01/05 03:08:05;;;;;;;15.37;7.07;;;5.10;99.90;;;;;;5036329;28;20432;-69
2022/01/05 03:10:31;;;;;;;10.53;7.03;;;4.90;99.90;;;;;;5034603;28;20181;-69
2022/01/05 03:12:56;;;;;;;9.07;6.57;;;4.70;99.90;;;;;;5034429;28;20537;-68
2022/01/05 03:15:22;;;;;;;9.83;6.17;;;4.80;99.90;;;;;;5034999;28;20287;-67
2022/01/05 03:17:47;;;;;;;14.23;7.13;;;4.90;99.90;;;;;;5036171;28;20189;-69
2022/01/05 03:20:14;;;;;;;14.33;7.10;;;4.90;99.90;;;;;;5034846;28;20185;-68
2022/01/05 03:22:40;;;;;;;14.90;7.00;;;4.80;99.90;;;;;;5035056;28;20174;-69
2022/01/05 03:25:08;;;;;;;9.07;5.77;;;4.70;99.90;;;;;;5034714;28;20441;-68
2022/01/05 03:27:34;;;;;;;10.77;6.33;;;4.50;99.90;;;;;;5033709;28;20448;-68
2022/01/05 03:29:59;;;;;;;13.90;6.80;;;4.30;99.90;;;;;;5034124;28;20429;-69
2022/01/05 03:32:30;;;;;;;9.53;6.83;;;4.40;99.90;;;;;;5034008;28;20456;-68
2022/01/05 03:34:56;;;;;;;10.80;7.57;;;4.40;99.90;;;;;;5034705;28;20399;-69
2022/01/05 03:37:22;;;;;;;11.83;7.00;;;4.40;99.90;;;;;;5034073;28;20424;-68
2022/01/05 03:39:47;;;;;;;12.10;6.70;;;4.50;99.90;;;;;;5035363;28;20183;-68
2022/01/05 03:42:12;;;;;;;8.50;6.40;;;4.60;99.90;;;;;;5033691;28;20647;-68
2022/01/05 03:44:38;;;;;;;10.37;6.90;;;4.70;99.90;;;;;;5034122;28;20178;-68
2022/01/05 03:47:04;;;;;;;10.27;6.20;;;4.80;99.90;;;;;;5033727;28;20197;-68
2022/01/05 03:49:29;;;;;;;7.87;5.90;;;4.80;99.90;;;;;;5034033;28;20179;-70
2022/01/05 03:51:55;;;;;;;7.53;5.67;;;4.80;99.90;;;;;;5035335;28;20276;-68
2022/01/05 03:54:20;;;;;;;10.20;6.20;;;4.80;99.90;;;;;;5034191;28;20169;-68
2022/01/05 03:56:46;;;;;;;8.23;4.97;;;4.80;99.90;;;;;;5033693;28;20198;-68
2022/01/05 03:59:11;;;;;;;9.10;5.80;;;4.90;99.90;;;;;;5034316;28;20174;-69
2022/01/05 04:01:37;;;;;;;9.47;5.20;;;5.00;99.90;;;;;;5035160;28;20174;-69
2022/01/05 04:04:03;;;;;;;8.23;5.60;;;4.90;99.90;;;;;;5033916;28;20163;-69
2022/01/05 04:06:28;;;;;;;8.93;5.40;;;4.80;99.90;;;;;;5032969;28;20243;-68
2022/01/05 04:08:54;;;;;;;7.60;5.03;;;4.80;99.90;;;;;;5033611;28;20189;-70
2022/01/05 04:11:19;;;;;;;9.60;5.93;;;4.90;99.90;;;;;;5033887;28;20196;-69
2022/01/05 04:13:45;;;;;;;11.00;4.47;;;5.00;99.90;;;;;;5033574;28;20216;-68
2022/01/05 04:16:10;;;;;;;5.23;4.13;;;4.80;99.90;;;;;;5033371;28;20221;-68
2022/01/05 04:18:36;;;;;;;5.80;4.07;;;4.80;99.90;;;;;;5033701;28;20636;-70
2022/01/05 04:21:02;;;;;;;7.43;4.20;;;4.60;99.90;;;;;;5033833;28;20712;-69
2022/01/05 04:23:27;;;;;;;7.83;4.57;;;4.60;99.90;;;;;;5048684;28;20181;-69
2022/01/05 04:25:53;;;;;;;12.73;4.60;;;4.70;99.90;;;;;;5052902;28;20514;-69
2022/01/05 04:28:18;;;;;;;9.10;4.50;;;4.70;99.90;;;;;;5053108;28;20280;-69
2022/01/05 04:30:44;;;;;;;4.43;3.60;;;4.70;99.90;;;;;;5049180;28;20201;-69
2022/01/05 04:33:09;;;;;;;6.17;3.63;;;4.70;99.90;;;;;;5034512;28;20278;-68
2022/01/05 04:35:35;;;;;;;7.63;4.10;;;4.70;99.90;;;;;;5033124;28;20187;-69
2022/01/05 04:38:00;;;;;;;6.37;3.97;;;4.60;99.90;;;;;;5033757;28;20171;-70
2022/01/05 04:40:26;;;;;;;6.10;3.53;;;4.50;99.90;;;;;;5033643;28;20182;-68
2022/01/05 04:42:52;;;;;;;11.50;3.27;;;4.50;99.90;;;;;;5036385;28;20177;-68
2022/01/05 04:45:18;;;;;;;5.83;3.87;;;4.50;99.90;;;;;;5037603;28;20418;-67
2022/01/05 04:47:43;;;;;;;10.10;4.40;;;4.40;99.90;;;;;;5037198;28;20181;-67
2022/01/05 04:50:10;;;;;;;6.60;3.30;;;4.30;99.90;;;;;;5038671;28;20205;-68
2022/01/05 04:52:36;;;;;;;4.30;2.90;;;4.30;99.90;;;;;;5037389;28;20200;-68
2022/01/05 04:55:02;;;;;;;5.93;3.10;;;4.30;99.90;;;;;;5037136;28;20410;-69
2022/01/05 04:57:27;;;;;;;8.10;3.17;;;4.30;99.90;;;;;;5037227;28;20208;-68
2022/01/05 04:59:53;;;;;;;17.40;3.57;;;4.10;99.90;;;;;;5037257;28;20438;-68
2022/01/05 05:02:18;;;;;;;8.67;3.10;;;4.10;99.90;;;;;;5038084;28;20185;-68
2022/01/05 05:04:44;;;;;;;10.87;3.00;;;4.10;99.90;;;;;;5037164;28;20671;-67
2022/01/05 05:07:09;;;;;;;7.33;3.23;;;4.00;99.90;;;;;;5036635;28;20195;-68
2022/01/05 05:09:35;;;;;;;7.43;3.40;;;3.90;99.90;;;;;;5036974;28;20183;-69
2022/01/05 05:12:01;;;;;;;4.40;3.53;;;4.00;99.90;;;;;;5037943;28;20174;-68
2022/01/05 05:14:26;;;;;;;8.90;5.07;;;4.10;99.90;;;;;;5036717;28;20169;-68
2022/01/05 05:16:52;;;;;;;8.23;3.00;;;4.10;99.90;;;;;;5036781;28;20199;-69
2022/01/05 05:19:17;;;;;;;8.97;3.93;;;4.10;99.90;;;;;;5036916;28;20273;-68
2022/01/05 05:21:43;;;;;;;7.83;2.80;;;4.00;99.90;;;;;;5038037;28;20181;-68
2022/01/05 05:24:10;;;;;;;10.57;3.53;;;4.10;99.90;;;;;;5036975;28;20173;-68
2022/01/05 05:26:36;;;;;;;8.33;3.37;;;4.20;99.90;;;;;;5036450;28;20573;-68
2022/01/05 05:29:01;;;;;;;7.67;3.07;;;4.20;99.90;;;;;;5036443;28;20451;-68
2022/01/05 05:31:27;;;;;;;13.33;3.43;;;4.10;99.90;;;;;;5035076;28;20593;-69
2022/01/05 05:33:52;;;;;;;5.00;2.70;;;4.20;99.90;;;;;;5037437;28;20219;-68
2022/01/05 05:36:18;;;;;;;7.07;3.33;;;4.20;99.90;;;;;;5036192;28;20637;-69
2022/01/05 05:38:43;;;;;;;5.30;3.33;;;4.20;99.90;;;;;;5036477;28;20171;-69
2022/01/05 05:41:09;;;;;;;11.60;3.53;;;4.10;99.90;;;;;;5036387;28;20172;-69
2022/01/05 05:43:34;;;;;;;6.97;2.87;;;4.10;99.90;;;;;;5036175;28;20192;-69
2022/01/05 05:46:00;;;;;;;3.50;2.80;;;4.10;99.90;;;;;;5035131;28;20528;-68
2022/01/05 05:48:25;;;;;;;9.20;2.97;;;4.10;99.90;;;;;;5035446;28;20648;-69
2022/01/05 05:50:51;;;;;;;9.90;3.40;;;4.10;99.90;;;;;;5036325;28;20173;-69
2022/01/05 05:53:16;;;;;;;10.67;3.77;;;4.20;99.90;;;;;;5035405;28;20325;-69
2022/01/05 05:55:42;;;;;;;4.43;3.30;;;4.10;99.90;;;;;;5037198;28;20205;-67
2022/01/05 05:58:07;;;;;;;4.93;2.90;;;4.10;99.90;;;;;;5035901;28;20174;-68
2022/01/05 06:00:33;;;;;;;10.13;3.57;;;4.10;99.90;;;;;;5036131;28;20172;-68
2022/01/05 06:02:59;;;;;;;7.40;3.67;;;4.00;99.90;;;;;;5035082;28;20190;-68
2022/01/05 06:05:25;;;;;;;8.73;3.07;;;4.00;99.90;;;;;;5044219;28;20208;-70
2022/01/05 06:07:51;;;;;;;8.50;3.27;;;4.00;99.90;;;;;;5035540;28;20413;-68
2022/01/05 06:10:16;;;;;;;11.20;3.30;;;4.00;99.90;;;;;;5036057;28;20961;-68
2022/01/05 06:12:42;;;;;;;8.23;3.63;;;4.10;99.90;;;;;;5036171;28;20202;-69
2022/01/05 06:15:08;;;;;;;9.40;3.53;;;4.10;99.90;;;;;;5039173;28;20176;-69
2022/01/05 06:17:33;;;;;;;6.50;3.07;;;4.10;99.90;;;;;;5055317;28;20159;-68
2022/01/05 06:19:59;;;;;;;11.67;3.30;;;4.10;99.90;;;;;;5055363;28;20522;-68
2022/01/05 06:22:26;;;;;;;5.43;3.50;;;4.20;99.90;;;;;;5055375;28;20183;-68
2022/01/05 06:24:51;;;;;;;8.30;3.47;;;4.20;99.90;;;;;;5053175;28;20196;-68
2022/01/05 06:27:17;;;;;;;9.03;3.33;;;4.20;99.90;;;;;;5054757;28;20472;-67
2022/01/05 06:29:43;;;;;;;7.40;3.90;;;4.20;99.90;;;;;;5035617;28;20279;-69
2022/01/05 06:32:09;;;;;;;8.03;3.20;;;4.20;99.90;;;;;;5032256;28;20217;-69
2022/01/05 06:34:34;;;;;;;6.23;3.50;;;4.10;99.90;;;;;;5033838;28;20178;-68
2022/01/05 06:37:00;;;;;;;6.93;3.07;;;4.10;99.90;;;;;;5033983;28;20435;-69
2022/01/05 06:39:25;;;;;;;4.90;3.30;;;4.10;99.90;;;;;;5033478;28;20204;-68
2022/01/05 06:41:51;;;;;;;5.43;3.83;;;4.30;99.90;;;;;;5033962;28;20179;-68
2022/01/05 06:44:16;;;;;;;11.63;3.90;;;4.30;99.90;;;;;;5033907;28;20777;-69
2022/01/05 06:46:42;;;;;;;5.30;2.93;;;4.40;99.90;;;;;;5033820;28;20209;-69
2022/01/05 06:49:08;;;;;;;7.20;3.00;;;4.30;99.90;;;;;;5034319;28;20679;-69
2022/01/05 06:51:33;;;;;;;9.67;3.93;;;4.20;99.90;;;;;;5039568;28;20231;-68
2022/01/05 06:53:59;;;;;;;8.83;3.03;;;4.30;99.90;;;;;;5034630;28;20907;-68
2022/01/05 06:56:24;;;;;;;8.20;3.50;;;4.40;99.90;;;;;;5033535;28;20190;-68
2022/01/05 06:58:50;;;;;;;6.37;3.00;;;4.40;99.90;;;;;;5033632;28;20181;-70
2022/01/05 07:01:15;;;;;;;5.63;3.70;;;4.40;99.90;;;;;;5039886;28;20177;-68
2022/01/05 07:03:41;;;;;;;4.47;3.83;;;4.30;99.90;;;;;;5033469;28;20236;-68
2022/01/05 07:06:06;;;;;;;7.60;2.97;;;4.30;99.90;;;;;;5033123;28;20219;-70
2022/01/05 07:08:32;;;;;;;6.97;3.23;;;4.30;99.90;;;;;;5033147;28;20261;-68
2022/01/05 07:10:57;;;;;;;5.03;3.33;;;4.20;99.90;;;;;;5035194;28;20170;-69
2022/01/05 07:13:24;;;;;;;5.37;3.20;;;4.20;99.90;;;;;;5052476;28;20199;-68
2022/01/05 07:15:50;;;;;;;6.00;3.27;;;4.30;99.90;;;;;;5051848;28;20484;-68
2022/01/05 07:18:16;;;;;;;10.93;3.50;;;4.30;99.90;;;;;;5044055;28;20490;-68
2022/01/05 07:20:41;;;;;;;8.13;3.97;;;4.20;99.90;;;;;;5031755;28;20853;-70
2022/01/05 07:23:08;;;;;;;9.60;3.03;;;4.20;99.90;;;;;;5030087;28;20482;-70
2022/01/05 07:25:34;;;;;;;5.20;3.40;;;4.20;99.90;;;;;;5030665;28;20236;-69
2022/01/05 07:28:00;;;;;;;5.83;3.30;;;4.30;99.90;;;;;;5030441;28;20565;-69
2022/01/05 07:30:25;;;;;;;13.20;3.50;;;4.30;99.90;;;;;;5029658;28;20675;-69
2022/01/05 07:32:51;;;;;;;5.93;3.67;;;4.30;99.90;;;;;;5036701;28;20223;-70
2022/01/05 07:35:17;;;;;;;6.30;3.60;;;4.20;99.90;;;;;;5051441;28;20690;-70
2022/01/05 07:37:42;;;;;;;7.23;3.50;;;4.20;99.90;;;;;;5050990;28;20214;-70
2022/01/05 07:40:08;;;;;;;8.63;3.87;;;4.30;99.90;;;;;;5035808;28;20208;-69
2022/01/05 07:42:35;;;;;;;10.13;3.30;;;4.30;99.90;;;;;;5017228;28;20662;-69
2022/01/05 07:45:02;;;;;;;19.43;5.27;;;4.30;99.90;;;;;;5031231;28;20979;-69
2022/01/05 07:47:28;;;;;;;9.37;3.63;;;4.20;99.90;;;;;;5026855;28;20491;-71
2022/01/05 07:49:54;;;;;;;10.47;3.40;;;4.30;99.90;;;;;;5026314;28;21026;-70
2022/01/05 07:52:19;;;;;;;8.03;4.50;;;4.30;99.90;;;;;;5027992;28;20702;-68
2022/01/05 07:54:45;;;;;;;6.80;3.50;;;4.30;99.90;;;;;;5028755;28;20619;-69
2022/01/05 07:57:10;;;;;;;10.00;4.10;;;4.30;99.90;;;;;;5028072;28;20207;-68
2022/01/05 07:59:36;;;;;;;5.73;4.60;;;4.30;99.90;;;;;;5027718;28;20193;-68
2022/01/05 08:02:01;;;;;;;11.60;4.70;;;4.40;99.90;;;;;;5027979;28;20348;-69
2022/01/05 08:04:28;;;;;;;7.57;4.07;;;4.40;99.90;;;;;;5029565;28;20185;-69
2022/01/05 08:06:53;;;;;;;8.53;4.10;;;4.40;99.90;;;;;;5025000;28;20206;-69
2022/01/05 08:09:19;;;;;;;11.33;4.00;;;4.50;99.90;;;;;;5028265;28;20416;-69
2022/01/05 08:11:45;;;;;;;12.30;4.73;;;4.40;99.90;;;;;;5029065;28;20188;-70
2022/01/05 08:14:10;;;;;;;6.13;3.60;;;4.50;99.90;;;;;;5023009;28;20266;-69
2022/01/05 08:16:36;;;;;;;9.00;4.10;;;4.40;99.90;;;;;;5027642;28;20221;-69
2022/01/05 08:19:02;;;;;;;9.30;4.10;;;4.50;99.90;;;;;;5027986;28;20187;-70
2022/01/05 08:21:27;;;;;;;9.80;3.70;;;4.50;99.90;;;;;;5028113;28;20224;-69
2022/01/05 08:23:53;;;;;;;9.50;4.00;;;4.50;99.90;;;;;;5028111;28;20193;-69
2022/01/05 08:26:19;;;;;;;5.30;3.77;;;4.50;99.90;;;;;;5036367;28;20213;-69
2022/01/05 08:28:44;;;;;;;10.00;4.20;;;4.50;99.90;;;;;;5031138;28;20189;-70
2022/01/05 08:31:10;;;;;;;9.80;4.87;;;4.30;99.90;;;;;;5027875;28;20187;-70
2022/01/05 08:33:35;;;;;;;8.60;4.17;;;4.30;99.90;;;;;;5027738;28;20570;-71
2022/01/05 08:36:02;;;;;;;9.57;4.50;;;4.30;99.90;;;;;;5029268;28;20209;-70
2022/01/05 08:38:28;;;;;;;10.70;5.17;;;4.40;99.90;;;;;;5028140;28;20186;-71
2022/01/05 08:40:54;;;;;;;11.00;4.40;;;4.30;99.90;;;;;;5029776;28;20463;-70
2022/01/05 08:43:19;;;;;;;11.17;6.40;;;4.40;99.90;;;;;;5026651;28;20982;-71
2022/01/05 08:45:46;;;;;;;8.17;3.80;;;4.40;99.90;;;;;;5027617;28;20220;-71
2022/01/05 08:48:12;;;;;;;10.90;4.37;;;4.40;99.90;;;;;;5027525;28;20182;-71
2022/01/05 08:50:38;;;;;;;16.37;5.00;;;4.50;99.90;;;;;;5027700;28;20435;-70
2022/01/05 08:53:10;;;;;;;8.43;4.27;;;4.40;99.90;;;;;;5028190;28;21070;-72
2022/01/05 08:55:39;;;;;;;11.03;4.87;;;4.50;99.90;;;;;;5027181;28;20435;-69
2022/01/05 08:58:06;;;;;;;11.53;4.80;;;4.50;99.90;;;;;;5027522;28;20538;-71
2022/01/05 09:00:32;;;;;;;12.10;4.73;;;4.50;99.90;;;;;;5027100;28;20413;-71
2022/01/05 09:02:58;;;;;;;14.47;5.77;;;4.60;99.90;;;;;;5027426;28;20936;-70
2022/01/05 09:05:24;;;;;;;10.60;5.37;;;4.50;99.90;;;;;;5027094;28;20543;-70
2022/01/05 09:07:49;;;;;;;12.97;5.93;;;4.50;99.90;;;;;;5027289;28;20570;-70
2022/01/05 09:10:16;;;;;;;15.43;5.53;;;4.50;99.90;;;;;;5027290;28;20179;-71
2022/01/05 09:12:42;;;;;;;9.67;5.37;;;4.50;99.90;;;;;;5031837;28;20216;-71
2022/01/05 09:15:08;;;;;;;10.00;5.67;;;4.50;99.90;;;;;;5027278;28;20449;-71
2022/01/05 09:17:34;;;;;;;21.30;6.13;;;4.50;99.90;;;;;;5026826;28;20436;-70
2022/01/05 09:20:00;;;;;;;8.70;6.10;;;4.50;99.90;;;;;;5027671;28;20416;-71
2022/01/05 09:22:25;;;;;;;11.93;5.97;;;4.50;99.90;;;;;;5034999;28;20186;-70
2022/01/05 09:24:51;;;;;;;10.77;5.30;;;4.50;99.90;;;;;;5029040;28;20292;-71
2022/01/05 09:27:17;;;;;;;8.80;5.67;;;4.50;99.90;;;;;;5027299;28;20196;-71
2022/01/05 09:29:43;;;;;;;5.90;5.03;;;4.60;99.90;;;;;;5030565;28;20421;-71
2022/01/05 09:32:09;;;;;;;10.47;6.20;;;4.60;99.90;;;;;;5031705;28;20429;-69
2022/01/05 09:34:40;;;;;;;9.97;6.47;;;4.60;99.90;;;;;;5030925;28;20412;-69
2022/01/05 09:37:13;;;;;;;10.07;5.83;;;4.50;99.90;;;;;;5031043;28;20201;-69
2022/01/05 09:42:23;;;;;;;15.20;5.70;;;4.50;99.90;;;;;;5030361;28;20431;-70
2022/01/05 09:44:51;;;;;;;14.47;5.97;;;4.50;99.90;;;;;;5032040;28;20441;-69
2022/01/05 09:47:44;;;;;;;11.20;5.50;;;4.40;99.90;;;;;;5030186;28;20443;-70
2022/01/05 09:50:12;;;;;;;11.00;6.30;;;4.40;99.90;;;;;;5030521;28;20412;-70
2022/01/05 09:52:43;;;;;;;13.10;6.10;;;4.40;99.90;;;;;;5030162;28;20938;-69
2022/01/05 09:55:11;;;;;;;9.43;5.87;;;4.40;99.90;;;;;;5040987;28;20460;-71
2022/01/05 09:57:41;;;;;;;13.27;6.30;;;4.40;99.90;;;;;;5029949;28;20994;-71
2022/01/05 10:00:09;;;;;;;13.63;6.07;;;4.40;99.90;;;;;;5027878;28;20419;-70
2022/01/05 10:02:35;;;;;;;13.93;6.03;;;4.50;99.90;;;;;;5029348;28;20471;-71
2022/01/05 10:05:02;;;;;;;12.00;6.03;;;4.40;99.90;;;;;;5030671;28;20460;-71
2022/01/05 10:07:27;;;;;;;15.63;5.97;;;4.40;99.90;;;;;;5029111;28;20210;-70
2022/01/05 10:09:53;;;;;;;12.27;5.40;;;4.50;99.90;;;;;;5030695;28;20869;-71
2022/01/05 10:12:20;;;;;;;13.40;5.53;;;4.60;99.90;;;;;;5029798;28;20186;-71
2022/01/05 10:14:48;;;;;;;8.50;5.40;;;4.60;99.90;;;;;;5031092;28;20191;-70
2022/01/05 10:17:25;;;;;;;11.47;5.60;;;4.70;99.90;;;;;;5029680;28;20822;-71
2022/01/05 10:20:07;;;;;;;13.90;5.53;;;4.70;99.90;;;;;;5069624;22;20510;-69
2022/01/05 10:22:36;;;;;;;8.63;6.03;;;4.70;99.90;;;;;;5051687;28;20425;-69
2022/01/05 10:25:22;;;;;;;12.97;6.57;;;4.80;99.90;;;;;;5033272;28;20425;-68
2022/01/05 10:28:02;;;;;;;9.70;5.23;;;4.80;99.90;;;;;;5045386;28;20423;-68
2022/01/05 10:30:37;;;;;;;8.60;5.00;;;4.80;99.90;;;;;;5032088;28;20404;-68
2022/01/05 10:33:03;;;;;;;7.90;5.40;;;5.00;99.90;;;;;;5032096;28;20464;-70
2022/01/05 10:35:28;;;;;;;12.50;4.97;;;4.90;99.90;;;;;;5030791;28;20938;-68
2022/01/05 10:38:04;;;;;;;11.07;5.30;;;4.90;99.90;;;;;;5031698;28;20443;-68
2022/01/05 10:40:36;;;;;;;10.93;5.30;;;4.90;99.90;;;;;;5031263;28;20177;-68
2022/01/05 10:43:10;;;;;;;14.73;5.53;;;4.80;99.90;;;;;;5031162;28;20428;-69
2022/01/05 10:45:41;;;;;;;17.47;6.43;;;4.70;99.90;;;;;;5030447;28;20435;-70
2022/01/05 10:48:10;;;;;;;11.33;5.30;;;4.70;99.90;;;;;;5031609;28;20495;-69
2022/01/05 10:50:37;;;;;;;15.03;5.67;;;4.70;99.90;;;;;;5031017;28;20471;-69
2022/01/05 10:53:04;;;;;;;10.63;5.93;;;4.70;99.90;;;;;;5031468;28;20465;-69
2022/01/05 10:55:30;;;;;;;9.43;5.30;;;4.70;99.90;;;;;;5013151;28;20487;-69
2022/01/05 10:58:11;;;;;;;6.90;4.90;;;4.70;99.90;;;;;;5031319;28;20429;-69
2022/01/05 11:00:42;;;;;;;15.43;6.73;;;4.60;99.90;;;;;;5014148;28;21310;-69
2022/01/05 11:03:32;;;;;;;7.13;5.00;;;4.60;99.90;;;;;;5042650;28;20423;-69
2022/01/05 11:06:14;;;;;;;12.00;5.23;;;4.70;99.90;;;;;;5043828;28;20409;-68
2022/01/05 11:09:00;;;;;;;7.90;4.67;;;4.70;99.90;;;;;;5050196;28;20439;-69
2022/01/05 11:11:43;;;;;;;12.97;5.60;;;4.70;99.90;;;;;;5039892;28;20430;-68
2022/01/05 11:14:11;;;;;;;6.63;5.03;;;4.70;99.90;;;;;;5026391;28;21066;-69
2022/01/05 11:16:39;;;;;;;11.33;5.70;;;4.70;99.90;;;;;;5025705;28;20425;-71
2022/01/05 11:19:19;;;;;;;9.30;4.70;;;4.70;99.90;;;;;;5034814;28;20467;-69
2022/01/05 11:22:05;;;;;;;5.97;4.93;;;4.70;99.90;;;;;;5029051;28;20465;-69
2022/01/05 11:24:37;;;;;;;12.90;6.10;;;4.70;99.90;;;;;;5010096;28;20478;-70
2022/01/05 11:27:04;;;;;;;15.40;5.77;;;4.70;99.90;;;;;;5012386;28;20564;-70
2022/01/05 11:29:30;;;;;;;12.83;5.43;;;4.70;99.90;;;;;;5020576;28;20461;-70
2022/01/05 11:31:57;;;;;;;10.63;5.00;;;4.60;99.90;;;;;;5027577;28;20420;-68
2022/01/05 11:34:26;;;;;;;11.10;5.23;;;4.50;99.90;;;;;;5024990;28;20205;-69
2022/01/05 11:36:51;;;;;;;9.30;6.27;;;4.60;99.90;;;;;;5034016;28;20424;-68
2022/01/05 11:39:17;;;;;;;6.97;5.47;;;4.60;99.90;;;;;;5027369;28;20481;-68
2022/01/05 11:41:47;;;;;;;6.17;5.20;;;4.70;99.90;;;;;;5027295;28;20583;-68
2022/01/05 11:44:14;;;;;;;8.10;5.70;;;4.70;99.90;;;;;;5026736;28;20195;-69
2022/01/05 11:46:43;;;;;;;9.30;5.13;;;4.70;99.90;;;;;;5027388;28;20468;-69
2022/01/05 11:49:11;;;;;;;10.20;6.60;;;4.70;99.90;;;;;;5029127;28;20445;-68
2022/01/05 11:51:43;;;;;;;12.97;5.77;;;4.70;99.90;;;;;;5027919;28;20432;-70
2022/01/05 11:54:12;;;;;;;9.57;5.50;;;4.70;99.90;;;;;;5028635;28;20466;-68
2022/01/05 11:56:52;;;;;;;14.23;6.23;;;4.70;99.90;;;;;;5028889;28;20420;-69
2022/01/05 11:59:33;;;;;;;10.77;6.27;;;4.60;99.90;;;;;;5028996;28;20440;-68
2022/01/05 12:02:04;;;;;;;16.53;6.10;;;4.60;99.90;;;;;;5028935;28;20428;-70
2022/01/05 12:04:31;;;;;;;6.23;5.57;;;4.60;99.90;;;;;;5010426;28;20475;-69
2022/01/05 12:07:00;;;;;;;7.80;5.50;;;4.60;99.90;;;;;;5027739;28;20428;-69
2022/01/05 12:09:29;;;;;;;9.73;5.57;;;4.60;99.90;;;;;;5028839;28;20444;-69
2022/01/05 12:11:56;;;;;;;9.77;5.90;;;4.60;99.90;;;;;;5029512;28;20417;-69
2022/01/05 12:14:22;;;;;;;9.83;5.80;;;4.60;99.90;;;;;;5031166;28;20464;-69
2022/01/05 12:17:02;;;;;;;16.43;5.93;;;4.70;99.90;;;;;;5031907;28;20429;-69
2022/01/05 12:19:34;;;;;;;12.70;6.47;;;4.70;99.90;;;;;;5022336;28;20552;-69
2022/01/05 12:22:14;;;;;;;12.70;7.00;;;4.70;99.90;;;;;;5029842;28;20417;-69
2022/01/05 12:25:00;;;;;;;16.40;5.97;;;4.80;99.90;;;;;;5032846;28;20430;-69
2022/01/05 12:27:27;;;;;;;15.33;5.57;;;4.80;99.90;;;;;;5027636;28;20507;-72
2022/01/05 12:29:54;;;;;;;13.37;6.23;;;4.80;99.90;;;;;;5032818;28;20442;-69
2022/01/05 12:32:34;;;;;;;11.73;8.47;;;4.80;99.90;;;;;;5038845;28;20429;-68
2022/01/05 12:35:23;;;;;;;14.07;6.27;;;4.90;99.90;;;;;;5028522;28;20738;-67
2022/01/05 12:37:55;;;;;;;9.93;5.90;;;4.90;99.90;;;;;;5023885;28;20432;-69
2022/01/05 12:40:33;;;;;;;17.93;6.40;;;4.90;99.90;;;;;;5027784;28;20420;-69
2022/01/05 12:43:19;;;;;;;12.10;7.17;;;4.90;99.90;;;;;;5028098;28;20416;-68
2022/01/05 12:46:10;;;;;;;18.63;7.03;;;4.90;99.90;;;;;;5027713;28;20415;-68
2022/01/05 12:48:36;;;;;;;15.70;6.83;;;4.90;99.90;;;;;;5027942;28;20441;-68
2022/01/05 12:51:14;;;;;;;20.50;6.13;;;4.90;99.90;;;;;;5027683;28;20438;-68
2022/01/05 12:54:06;;;;;;;10.07;4.93;;;5.00;99.90;;;;;;5025983;28;20229;-69
2022/01/05 12:56:36;;;;;;;11.20;6.33;;;5.00;99.90;;;;;;5027420;28;20408;-69